Time;durP1;ratioP1;P1;durP2;ratioP2;P2;SDS_P1;SDS_P2;PMS_P1;PMS_P2;Temp;Humidity;BMP_temperature;BMP_pressure;BME280_temperature;BME280_humidity;BME280_pressure;Samples;Min_cycle;Max_cycle;Signal;HPM_P1;HPM_P2
2024/03/02 00:00:41;;;;;;;10.00;6.60;;;4.50;99.90;;;;;;2063837;28;20228;-72
2024/03/02 00:01:41;;;;;;;8.47;6.60;;;4.50;99.90;;;;;;2067399;28;20233;-72
2024/03/02 00:02:47;;;;;;;9.80;6.50;;;4.40;99.90;;;;;;2072821;28;20320;-72
2024/03/02 00:03:47;;;;;;;9.98;6.35;;;4.30;99.90;;;;;;2069374;28;20714;-72
2024/03/02 00:04:48;;;;;;;8.80;6.23;;;4.30;99.90;;;;;;2062695;28;20243;-71
2024/03/02 00:05:51;;;;;;;10.00;6.80;;;4.30;99.90;;;;;;2064833;28;20189;-71
2024/03/02 00:06:55;;;;;;;6.70;4.40;;;4.40;99.90;;;;;;2064714;28;20276;-71
2024/03/02 00:08:00;;;;;;;9.40;6.10;;;4.40;99.90;;;;;;2056234;28;20195;-71
2024/03/02 00:09:01;;;;;;;8.35;5.78;;;4.30;99.90;;;;;;2065361;28;20296;-71
2024/03/02 00:10:08;;;;;;;9.43;6.63;;;4.20;99.90;;;;;;2063341;28;20194;-72
2024/03/02 00:11:10;;;;;;;9.88;7.32;;;4.30;99.90;;;;;;2062075;28;20816;-72
2024/03/02 00:12:16;;;;;;;10.68;7.45;;;4.40;99.90;;;;;;2063315;28;20252;-71
2024/03/02 00:13:22;;;;;;;10.13;6.88;;;4.40;99.90;;;;;;2064092;28;20229;-72
2024/03/02 00:14:24;;;;;;;11.20;7.68;;;4.30;99.90;;;;;;2063257;28;20238;-71
2024/03/02 00:15:33;;;;;;;9.68;6.97;;;4.40;99.90;;;;;;2059188;28;20244;-71
2024/03/02 00:16:34;;;;;;;9.10;6.30;;;4.40;99.90;;;;;;2072496;28;20323;-72
2024/03/02 00:17:34;;;;;;;12.80;6.60;;;4.40;99.90;;;;;;2063776;28;20232;-71
2024/03/02 00:18:36;;;;;;;8.13;5.90;;;4.30;99.90;;;;;;2065644;28;20292;-72
2024/03/02 00:19:39;;;;;;;10.68;6.68;;;4.20;99.90;;;;;;2070576;28;20237;-71
2024/03/02 00:20:41;;;;;;;6.65;4.95;;;4.20;99.90;;;;;;2068030;28;20229;-69
2024/03/02 00:21:41;;;;;;;8.43;5.70;;;4.10;99.90;;;;;;2064870;28;20861;-70
2024/03/02 00:22:42;;;;;;;8.33;5.03;;;4.10;99.90;;;;;;2064285;28;20280;-73
2024/03/02 00:23:43;;;;;;;9.87;6.30;;;4.00;99.90;;;;;;2054391;28;20277;-72
2024/03/02 00:24:43;;;;;;;8.77;5.30;;;4.00;99.90;;;;;;2055121;28;20262;-74
2024/03/02 00:25:49;;;;;;;8.93;5.40;;;3.80;99.90;;;;;;2076455;28;20308;-73
2024/03/02 00:26:49;;;;;;;8.00;5.78;;;3.80;99.90;;;;;;2063629;28;20229;-72
2024/03/02 00:27:50;;;;;;;9.43;6.80;;;3.80;99.90;;;;;;2064876;28;20603;-73
2024/03/02 00:28:56;;;;;;;11.17;7.17;;;3.70;99.90;;;;;;2071065;28;20670;-74
2024/03/02 00:29:57;;;;;;;9.55;6.85;;;3.80;99.90;;;;;;2070030;28;20267;-74
2024/03/02 00:31:02;;;;;;;10.87;6.40;;;3.70;99.90;;;;;;2072217;28;20736;-74
2024/03/02 00:32:03;;;;;;;9.10;5.55;;;3.80;99.90;;;;;;2059571;28;20214;-73
2024/03/02 00:33:07;;;;;;;9.35;6.28;;;3.70;99.90;;;;;;2055408;28;20198;-73
2024/03/02 00:34:08;;;;;;;10.02;6.35;;;3.80;99.90;;;;;;2064004;28;20664;-73
2024/03/02 00:35:10;;;;;;;8.73;5.90;;;3.80;99.90;;;;;;2071935;28;20230;-74
2024/03/02 00:36:13;;;;;;;10.50;6.75;;;3.80;99.90;;;;;;2073030;28;20635;-74
2024/03/02 00:37:14;;;;;;;9.50;6.63;;;3.80;99.90;;;;;;2062610;28;20762;-74
2024/03/02 00:38:15;;;;;;;8.07;5.45;;;3.80;99.90;;;;;;2061461;28;20555;-74
2024/03/02 00:39:17;;;;;;;7.97;5.78;;;3.70;99.90;;;;;;2052641;28;20259;-73
2024/03/02 00:40:18;;;;;;;9.68;6.28;;;3.70;99.90;;;;;;2064028;28;20230;-74
2024/03/02 00:41:27;;;;;;;9.65;6.05;;;3.70;99.90;;;;;;2072564;28;20228;-74
2024/03/02 00:42:28;;;;;;;9.65;5.75;;;3.70;99.90;;;;;;2070285;28;20701;-73
2024/03/02 00:43:51;;;;;;;9.17;6.13;;;3.70;99.90;;;;;;2057030;28;20312;-73
2024/03/02 00:44:52;;;;;;;9.63;6.65;;;3.70;99.90;;;;;;2063996;28;20224;-74
2024/03/02 00:45:53;;;;;;;10.07;6.50;;;3.70;99.90;;;;;;2063397;28;20201;-73
2024/03/02 00:46:53;;;;;;;9.20;5.87;;;3.60;99.90;;;;;;2065075;28;20221;-75
2024/03/02 00:47:54;;;;;;;9.43;5.60;;;3.60;99.90;;;;;;2058910;28;20194;-74
2024/03/02 00:49:05;;;;;;;8.63;5.70;;;3.60;99.90;;;;;;2065160;28;20281;-73
2024/03/02 00:50:06;;;;;;;12.05;6.93;;;3.60;99.90;;;;;;2068361;28;20201;-73
2024/03/02 00:51:08;;;;;;;9.40;5.90;;;3.50;99.90;;;;;;2074437;28;20245;-74
2024/03/02 00:52:10;;;;;;;10.20;6.43;;;3.40;99.90;;;;;;2065531;28;20233;-73
2024/03/02 00:53:12;;;;;;;10.55;6.50;;;3.30;99.90;;;;;;2061943;28;20248;-74
2024/03/02 00:54:14;;;;;;;9.98;6.10;;;3.40;99.90;;;;;;2066522;28;20384;-73
2024/03/02 00:55:15;;;;;;;9.40;6.40;;;3.20;99.90;;;;;;2073557;28;20742;-74
2024/03/02 00:56:16;;;;;;;7.97;4.85;;;3.20;99.90;;;;;;2059635;28;20233;-73
2024/03/02 00:57:17;;;;;;;10.98;6.43;;;3.20;99.90;;;;;;2066397;28;20222;-73
2024/03/02 00:58:17;;;;;;;10.47;7.00;;;3.20;99.90;;;;;;2074662;28;20731;-73
2024/03/02 00:59:18;;;;;;;9.57;6.10;;;3.20;99.90;;;;;;2070488;28;20362;-74
2024/03/02 01:00:19;;;;;;;12.30;7.67;;;3.20;99.90;;;;;;2073248;28;20233;-74
2024/03/02 01:01:21;;;;;;;10.77;6.57;;;3.30;99.90;;;;;;2064827;28;20233;-74
2024/03/02 01:02:21;;;;;;;12.77;7.40;;;3.20;99.90;;;;;;2065465;28;20230;-73
2024/03/02 01:03:22;;;;;;;11.87;7.47;;;3.20;99.90;;;;;;2069762;28;20233;-73
2024/03/02 01:04:23;;;;;;;14.90;8.07;;;3.10;99.90;;;;;;2073165;28;20221;-74
2024/03/02 01:05:23;;;;;;;12.13;7.00;;;3.10;99.90;;;;;;2073636;28;20315;-74
2024/03/02 01:06:24;;;;;;;9.90;7.40;;;3.20;99.90;;;;;;2073516;28;20250;-74
2024/03/02 01:07:25;;;;;;;11.40;6.60;;;3.10;99.90;;;;;;2066435;28;20791;-74
2024/03/02 01:08:26;;;;;;;15.93;7.37;;;3.10;99.90;;;;;;2074441;28;20263;-75
2024/03/02 01:09:26;;;;;;;11.50;7.75;;;3.20;99.90;;;;;;2071326;28;20580;-74
2024/03/02 01:10:27;;;;;;;10.03;6.30;;;3.20;99.90;;;;;;2067240;28;20239;-74
2024/03/02 01:11:29;;;;;;;11.27;6.77;;;3.30;99.90;;;;;;2073283;28;20259;-74
2024/03/02 01:12:30;;;;;;;11.57;6.80;;;3.30;99.90;;;;;;2074208;28;20235;-74
2024/03/02 01:13:31;;;;;;;13.00;8.13;;;3.20;99.90;;;;;;2065681;28;20225;-74
2024/03/02 01:14:32;;;;;;;11.40;7.13;;;3.20;99.90;;;;;;2056577;28;20651;-74
2024/03/02 01:15:33;;;;;;;9.90;5.80;;;3.10;99.90;;;;;;2064353;28;20235;-74
2024/03/02 01:16:34;;;;;;;12.18;7.50;;;3.10;99.90;;;;;;2072642;28;20724;-74
2024/03/02 01:17:35;;;;;;;10.17;6.10;;;3.10;99.90;;;;;;2066551;28;20236;-74
2024/03/02 01:18:35;;;;;;;11.47;6.90;;;3.10;99.90;;;;;;2066306;28;20241;-74
2024/03/02 01:19:36;;;;;;;11.93;6.73;;;3.10;99.90;;;;;;2071250;28;20323;-74
2024/03/02 01:20:37;;;;;;;11.38;6.65;;;3.10;99.90;;;;;;2066218;28;20229;-73
2024/03/02 01:21:38;;;;;;;9.33;6.37;;;3.10;99.90;;;;;;2063787;28;20676;-74
2024/03/02 01:22:38;;;;;;;10.53;6.50;;;3.10;99.90;;;;;;2058463;28;20327;-74
2024/03/02 01:23:39;;;;;;;12.00;6.87;;;3.10;99.90;;;;;;2058174;28;20265;-73
2024/03/02 01:24:40;;;;;;;12.47;7.57;;;3.10;99.90;;;;;;2066269;28;20588;-74
2024/03/02 01:25:41;;;;;;;10.90;7.00;;;3.00;99.90;;;;;;2065786;28;20225;-73
2024/03/02 01:26:42;;;;;;;11.57;7.13;;;3.00;99.90;;;;;;2056745;28;20259;-73
2024/03/02 01:27:42;;;;;;;11.60;6.70;;;3.10;99.90;;;;;;2065986;28;20311;-74
2024/03/02 01:28:43;;;;;;;11.27;6.90;;;3.00;99.90;;;;;;2073668;28;20221;-74
2024/03/02 01:29:44;;;;;;;14.03;7.10;;;3.00;99.90;;;;;;2074636;28;20224;-75
2024/03/02 01:30:45;;;;;;;9.13;5.83;;;3.00;99.90;;;;;;2074606;28;20290;-74
2024/03/02 01:31:46;;;;;;;12.70;7.17;;;3.00;99.90;;;;;;2064506;28;20231;-74
2024/03/02 01:32:47;;;;;;;11.20;6.70;;;2.90;99.90;;;;;;2064861;28;20256;-72
2024/03/02 01:33:48;;;;;;;10.85;6.60;;;2.90;99.90;;;;;;2065886;28;20753;-73
2024/03/02 01:34:48;;;;;;;10.30;6.37;;;2.80;99.90;;;;;;2062834;28;20190;-73
2024/03/02 01:35:49;;;;;;;11.03;6.43;;;2.90;99.90;;;;;;2065570;28;20178;-73
2024/03/02 01:36:50;;;;;;;12.40;6.63;;;2.90;99.90;;;;;;2065575;28;20238;-73
2024/03/02 01:37:50;;;;;;;11.87;7.60;;;2.80;99.90;;;;;;2067497;28;20197;-73
2024/03/02 01:38:51;;;;;;;11.23;6.60;;;2.70;99.90;;;;;;2067209;28;20216;-74
2024/03/02 01:39:52;;;;;;;10.87;6.57;;;2.70;99.90;;;;;;2073398;28;20296;-74
2024/03/02 01:40:52;;;;;;;12.47;7.40;;;2.80;99.90;;;;;;2064242;28;20197;-73
2024/03/02 01:41:53;;;;;;;9.33;6.10;;;2.80;99.90;;;;;;2059848;28;20199;-74
2024/03/02 01:42:54;;;;;;;9.60;6.17;;;2.90;99.90;;;;;;2058050;28;20198;-73
2024/03/02 01:43:55;;;;;;;9.93;5.93;;;2.90;99.90;;;;;;2066002;28;20190;-74
2024/03/02 01:44:55;;;;;;;9.87;5.80;;;2.80;99.90;;;;;;2053375;28;20230;-73
2024/03/02 01:45:56;;;;;;;11.60;6.53;;;2.80;99.90;;;;;;2061384;28;20233;-73
2024/03/02 01:46:57;;;;;;;9.57;6.30;;;2.70;99.90;;;;;;2067132;28;20233;-73
2024/03/02 01:47:58;;;;;;;11.23;6.07;;;2.70;99.90;;;;;;2074233;28;20324;-74
2024/03/02 01:48:59;;;;;;;9.73;6.03;;;2.70;99.90;;;;;;2067019;28;20200;-75
2024/03/02 01:49:59;;;;;;;10.03;6.30;;;2.80;99.90;;;;;;2071263;28;20966;-75
2024/03/02 01:51:01;;;;;;;7.83;5.57;;;2.80;99.90;;;;;;2071167;28;20266;-75
2024/03/02 01:52:02;;;;;;;7.30;4.85;;;2.80;99.90;;;;;;2073227;28;20432;-75
2024/03/02 01:53:03;;;;;;;10.70;6.43;;;2.80;99.90;;;;;;2074242;28;20239;-74
2024/03/02 01:54:03;;;;;;;8.75;5.50;;;2.80;99.90;;;;;;2066995;28;20204;-75
2024/03/02 01:55:06;;;;;;;11.23;6.40;;;2.80;99.90;;;;;;2064647;28;20227;-74
2024/03/02 01:56:06;;;;;;;11.40;6.32;;;2.60;99.90;;;;;;2062658;28;20194;-75
2024/03/02 01:57:07;;;;;;;10.17;6.37;;;2.60;99.90;;;;;;2065386;28;20243;-74
2024/03/02 01:58:08;;;;;;;11.27;6.70;;;2.60;99.90;;;;;;2067942;28;20250;-74
2024/03/02 01:59:09;;;;;;;8.27;5.70;;;2.50;99.90;;;;;;2063728;28;20243;-73
2024/03/02 02:00:10;;;;;;;8.17;5.40;;;2.60;99.90;;;;;;2066715;28;20232;-74
2024/03/02 02:01:11;;;;;;;9.88;6.28;;;2.60;99.90;;;;;;2070085;28;20224;-74
2024/03/02 02:02:12;;;;;;;7.40;5.40;;;2.60;99.90;;;;;;2072154;28;20231;-74
2024/03/02 02:03:13;;;;;;;7.93;5.20;;;2.70;99.90;;;;;;2063858;28;20231;-74
2024/03/02 02:04:13;;;;;;;10.87;6.87;;;2.60;99.90;;;;;;2065014;28;20263;-74
2024/03/02 02:05:14;;;;;;;7.63;5.60;;;2.60;99.90;;;;;;2058205;28;20237;-74
2024/03/02 02:06:15;;;;;;;9.60;7.18;;;2.50;99.90;;;;;;2064289;28;20234;-75
2024/03/02 02:07:16;;;;;;;8.87;5.90;;;2.50;99.90;;;;;;2062983;28;20233;-74
2024/03/02 02:08:16;;;;;;;11.27;6.30;;;2.50;99.90;;;;;;2051422;28;20235;-75
2024/03/02 02:09:18;;;;;;;10.93;6.00;;;2.40;99.90;;;;;;2058189;28;20702;-74
2024/03/02 02:10:19;;;;;;;7.85;5.75;;;2.40;99.90;;;;;;2055572;28;20229;-74
2024/03/02 02:11:19;;;;;;;9.93;5.90;;;2.50;99.90;;;;;;2063032;28;20232;-74
2024/03/02 02:12:20;;;;;;;11.33;5.67;;;2.50;99.90;;;;;;2071523;28;20803;-73
2024/03/02 02:13:21;;;;;;;10.57;5.97;;;2.50;99.90;;;;;;2073259;28;20236;-74
2024/03/02 02:14:21;;;;;;;8.17;5.83;;;2.50;99.90;;;;;;2070429;28;20232;-74
2024/03/02 02:15:27;;;;;;;8.47;5.53;;;2.50;99.90;;;;;;2068939;28;20230;-74
2024/03/02 02:16:27;;;;;;;8.00;5.25;;;2.60;99.90;;;;;;2071012;28;20235;-74
2024/03/02 02:17:28;;;;;;;9.63;5.97;;;2.50;99.90;;;;;;2071576;28;20256;-75
2024/03/02 02:18:29;;;;;;;8.97;5.00;;;2.50;99.90;;;;;;2071682;28;20228;-74
2024/03/02 02:19:29;;;;;;;7.40;5.27;;;2.60;99.90;;;;;;2065033;28;20236;-74
2024/03/02 02:20:30;;;;;;;8.07;5.17;;;2.60;99.90;;;;;;2057889;28;20316;-75
2024/03/02 02:21:31;;;;;;;10.20;5.63;;;2.50;99.90;;;;;;2060581;28;20227;-74
2024/03/02 02:22:31;;;;;;;9.10;5.20;;;2.50;99.90;;;;;;2071963;28;20231;-74
2024/03/02 02:23:32;;;;;;;7.70;5.40;;;2.50;99.90;;;;;;2073927;28;20325;-74
2024/03/02 02:24:33;;;;;;;9.23;5.67;;;2.40;99.90;;;;;;2074543;28;20236;-75
2024/03/02 02:25:33;;;;;;;7.83;4.83;;;2.40;99.90;;;;;;2061280;28;20255;-74
2024/03/02 02:26:34;;;;;;;8.30;5.10;;;2.40;99.90;;;;;;2054110;28;20233;-74
2024/03/02 02:27:35;;;;;;;7.20;4.73;;;2.60;99.90;;;;;;2058607;28;20235;-74
2024/03/02 02:28:36;;;;;;;9.07;5.43;;;2.40;99.90;;;;;;2063834;28;20231;-74
2024/03/02 02:29:37;;;;;;;8.77;5.70;;;2.50;99.90;;;;;;2062627;28;20232;-74
2024/03/02 02:30:38;;;;;;;8.53;5.27;;;2.40;99.90;;;;;;2061742;28;20228;-75
2024/03/02 02:31:40;;;;;;;6.47;4.35;;;2.40;99.90;;;;;;2056506;28;20227;-74
2024/03/02 02:32:41;;;;;;;6.60;4.90;;;2.40;99.90;;;;;;2062998;28;20232;-74
2024/03/02 02:33:43;;;;;;;5.50;4.00;;;2.40;99.90;;;;;;2063420;28;20235;-74
2024/03/02 02:34:43;;;;;;;7.65;5.07;;;2.30;99.90;;;;;;2065282;28;20675;-74
2024/03/02 02:35:44;;;;;;;8.97;5.43;;;2.40;99.90;;;;;;2065303;28;20231;-74
2024/03/02 02:36:44;;;;;;;11.60;6.10;;;2.40;99.90;;;;;;2064141;28;20772;-74
2024/03/02 02:37:50;;;;;;;8.07;5.20;;;2.40;99.90;;;;;;2063567;28;20609;-75
2024/03/02 02:38:51;;;;;;;7.40;4.75;;;2.30;99.90;;;;;;2069447;28;21209;-75
2024/03/02 02:39:52;;;;;;;7.57;4.60;;;2.30;99.90;;;;;;2064729;28;20190;-74
2024/03/02 02:40:53;;;;;;;6.72;4.90;;;2.20;99.90;;;;;;2061154;28;20220;-74
2024/03/02 02:41:54;;;;;;;8.27;5.87;;;2.20;99.90;;;;;;2074534;28;20196;-75
2024/03/02 02:42:54;;;;;;;8.57;4.47;;;2.20;99.90;;;;;;2064603;28;20643;-74
2024/03/02 02:43:55;;;;;;;8.80;5.27;;;2.10;99.90;;;;;;2049364;28;20226;-74
2024/03/02 02:44:56;;;;;;;7.82;4.57;;;1.90;99.90;;;;;;2062552;28;20192;-76
2024/03/02 02:45:57;;;;;;;7.37;4.90;;;1.90;99.90;;;;;;2064135;28;20188;-74
2024/03/02 02:46:57;;;;;;;9.87;5.47;;;1.90;99.90;;;;;;2066530;28;20212;-74
2024/03/02 02:47:58;;;;;;;10.50;6.30;;;1.90;99.90;;;;;;2057140;28;20189;-75
2024/03/02 02:48:59;;;;;;;11.23;5.77;;;1.80;99.90;;;;;;2070506;28;20208;-74
2024/03/02 02:49:59;;;;;;;9.23;5.03;;;1.80;99.90;;;;;;2069458;28;20204;-74
2024/03/02 02:51:00;;;;;;;7.50;5.13;;;1.70;99.90;;;;;;2066445;28;20193;-75
2024/03/02 02:52:01;;;;;;;6.57;4.43;;;1.80;99.90;;;;;;2058019;28;20216;-75
2024/03/02 02:53:01;;;;;;;11.00;5.60;;;1.90;99.90;;;;;;2073594;28;20706;-74
2024/03/02 02:54:02;;;;;;;10.53;5.17;;;1.70;99.90;;;;;;2080493;28;20202;-75
2024/03/02 02:55:11;;;;;;;5.83;4.43;;;1.80;99.90;;;;;;2080579;28;20182;-75
2024/03/02 02:56:12;;;;;;;7.07;5.30;;;1.80;99.90;;;;;;2074187;28;20305;-74
2024/03/02 02:57:12;;;;;;;7.07;4.70;;;1.90;99.90;;;;;;2065445;28;20261;-75
2024/03/02 02:58:14;;;;;;;9.43;5.63;;;1.90;99.90;;;;;;2065629;28;20258;-75
2024/03/02 02:59:15;;;;;;;9.05;5.07;;;1.90;99.90;;;;;;2066179;28;20666;-74
2024/03/02 03:00:18;;;;;;;5.60;3.87;;;1.90;99.90;;;;;;2068474;28;20255;-74
2024/03/02 03:01:19;;;;;;;8.05;4.85;;;1.80;99.90;;;;;;2063843;28;20255;-75
2024/03/02 03:02:19;;;;;;;6.73;3.70;;;1.80;99.90;;;;;;2066290;28;20572;-74
2024/03/02 03:03:20;;;;;;;7.37;4.40;;;1.80;99.90;;;;;;2071261;28;20228;-74
2024/03/02 03:04:21;;;;;;;7.63;4.60;;;1.80;99.90;;;;;;2062714;28;20228;-74
2024/03/02 03:05:21;;;;;;;6.57;4.97;;;1.80;99.90;;;;;;2063607;28;20228;-74
2024/03/02 03:06:22;;;;;;;8.30;4.77;;;1.80;99.90;;;;;;2056554;28;20238;-75
2024/03/02 03:07:23;;;;;;;9.90;4.57;;;1.70;99.90;;;;;;2049707;28;20232;-74
2024/03/02 03:08:24;;;;;;;8.07;4.43;;;1.70;99.90;;;;;;2045029;28;20234;-74
2024/03/02 03:09:25;;;;;;;7.37;4.33;;;1.70;99.90;;;;;;2050303;28;20476;-74
2024/03/02 03:10:27;;;;;;;8.10;4.60;;;1.80;99.90;;;;;;2056157;28;20225;-74
2024/03/02 03:11:28;;;;;;;7.88;4.60;;;1.80;99.90;;;;;;2056324;28;20261;-74
2024/03/02 03:12:29;;;;;;;6.73;4.60;;;1.80;99.90;;;;;;2064721;28;20298;-75
2024/03/02 03:13:29;;;;;;;6.40;3.50;;;1.80;99.90;;;;;;2071587;28;20635;-74
2024/03/02 03:14:30;;;;;;;6.23;4.13;;;1.70;99.90;;;;;;2060149;28;20250;-74
2024/03/02 03:15:31;;;;;;;5.80;4.27;;;1.70;99.90;;;;;;2054530;28;20773;-74
2024/03/02 03:16:31;;;;;;;6.30;3.80;;;1.80;99.90;;;;;;2048848;28;20274;-74
2024/03/02 03:17:32;;;;;;;7.07;4.57;;;1.80;99.90;;;;;;2062340;28;20259;-74
2024/03/02 03:18:33;;;;;;;5.83;4.50;;;1.80;99.90;;;;;;2070805;28;20656;-74
2024/03/02 03:19:34;;;;;;;5.97;3.93;;;1.90;99.90;;;;;;2069561;28;20230;-74
2024/03/02 03:20:34;;;;;;;6.57;4.60;;;1.90;99.90;;;;;;2061317;28;20745;-75
2024/03/02 03:21:35;;;;;;;4.97;3.37;;;1.90;99.90;;;;;;2070689;28;20224;-74
2024/03/02 03:22:37;;;;;;;6.57;3.97;;;1.80;99.90;;;;;;2063418;28;20372;-74
2024/03/02 03:23:37;;;;;;;5.72;3.50;;;1.90;99.90;;;;;;2071715;28;20252;-74
2024/03/02 03:24:38;;;;;;;7.67;4.30;;;1.70;99.90;;;;;;2072597;28;20232;-74
2024/03/02 03:25:38;;;;;;;7.43;4.33;;;1.80;99.90;;;;;;2071798;28;20241;-74
2024/03/02 03:26:39;;;;;;;7.20;4.70;;;1.80;99.90;;;;;;2072639;28;20244;-75
2024/03/02 03:27:41;;;;;;;7.47;4.70;;;1.80;99.90;;;;;;2071906;28;20235;-74
2024/03/02 03:28:42;;;;;;;8.35;4.85;;;1.60;99.90;;;;;;2072774;28;20237;-74
2024/03/02 03:29:42;;;;;;;7.00;4.93;;;1.70;99.90;;;;;;2074460;28;20226;-74
2024/03/02 03:30:43;;;;;;;7.10;4.07;;;1.80;99.90;;;;;;2070431;28;20229;-75
2024/03/02 03:31:44;;;;;;;7.07;4.40;;;1.70;99.90;;;;;;2064342;28;20235;-74
2024/03/02 03:32:45;;;;;;;6.63;4.27;;;1.70;99.90;;;;;;2058071;28;20238;-75
2024/03/02 03:33:45;;;;;;;8.43;4.60;;;1.80;99.90;;;;;;2060706;28;20259;-74
2024/03/02 03:34:47;;;;;;;5.07;3.50;;;1.70;99.90;;;;;;2072153;28;20479;-75
2024/03/02 03:35:48;;;;;;;9.57;5.18;;;1.60;99.90;;;;;;2063116;28;20302;-74
2024/03/02 03:36:49;;;;;;;5.77;4.17;;;1.70;99.90;;;;;;2064499;28;20902;-74
2024/03/02 03:37:49;;;;;;;5.37;3.70;;;1.70;99.90;;;;;;2064617;28;20185;-75
2024/03/02 03:38:50;;;;;;;7.37;3.80;;;1.60;99.90;;;;;;2060034;28;20213;-75
2024/03/02 03:39:51;;;;;;;7.30;4.50;;;1.60;99.90;;;;;;2057763;28;20199;-74
2024/03/02 03:40:51;;;;;;;6.67;4.10;;;1.60;99.90;;;;;;2058932;28;20186;-74
2024/03/02 03:41:52;;;;;;;7.33;4.30;;;1.70;99.90;;;;;;2067003;28;20219;-75
2024/03/02 03:42:53;;;;;;;5.63;3.70;;;1.70;99.90;;;;;;2058920;28;20232;-75
2024/03/02 03:43:54;;;;;;;9.50;4.53;;;1.60;99.90;;;;;;2047117;28;20186;-75
2024/03/02 03:44:55;;;;;;;8.20;4.17;;;1.70;99.90;;;;;;2073826;28;20199;-74
2024/03/02 03:45:56;;;;;;;7.93;4.70;;;1.70;99.90;;;;;;2058366;28;20224;-74
2024/03/02 03:46:57;;;;;;;7.15;3.97;;;1.60;99.90;;;;;;2058072;28;20676;-74
2024/03/02 03:47:57;;;;;;;5.43;3.67;;;1.50;99.90;;;;;;2049499;28;20220;-74
2024/03/02 03:48:58;;;;;;;5.77;4.00;;;1.50;99.90;;;;;;2044272;29;20648;-75
2024/03/02 03:49:59;;;;;;;5.75;3.75;;;1.50;99.90;;;;;;2055862;28;20194;-75
2024/03/02 03:51:00;;;;;;;6.53;3.90;;;1.50;99.90;;;;;;2058592;28;20202;-75
2024/03/02 03:52:00;;;;;;;5.00;3.63;;;1.50;99.90;;;;;;2072614;28;20183;-74
2024/03/02 03:53:01;;;;;;;6.43;3.90;;;1.50;99.90;;;;;;2062840;28;20255;-74
2024/03/02 03:54:02;;;;;;;6.33;3.60;;;1.40;99.90;;;;;;2058277;28;20191;-74
2024/03/02 03:55:03;;;;;;;5.40;3.50;;;1.40;99.90;;;;;;2063029;28;20608;-75
2024/03/02 03:56:04;;;;;;;7.43;4.20;;;1.50;99.90;;;;;;2072280;28;20712;-75
2024/03/02 03:57:05;;;;;;;6.10;4.05;;;1.50;99.90;;;;;;2069899;28;20196;-74
2024/03/02 03:58:05;;;;;;;7.20;4.13;;;1.50;99.90;;;;;;2062357;28;20194;-75
2024/03/02 03:59:06;;;;;;;6.60;4.03;;;1.50;99.90;;;;;;2072464;28;20214;-75
2024/03/02 04:00:10;;;;;;;5.80;3.90;;;1.40;99.90;;;;;;2056727;28;20268;-75
2024/03/02 04:01:10;;;;;;;6.13;4.10;;;1.40;99.90;;;;;;2065065;28;20267;-74
2024/03/02 04:02:12;;;;;;;6.70;4.30;;;1.30;99.90;;;;;;2071754;28;20630;-74
2024/03/02 04:03:13;;;;;;;7.32;4.85;;;1.30;99.90;;;;;;2064386;28;20237;-74
2024/03/02 04:04:14;;;;;;;5.47;3.53;;;1.30;99.90;;;;;;2072794;28;20220;-74
2024/03/02 04:05:14;;;;;;;6.50;3.67;;;1.20;99.90;;;;;;2070738;28;20331;-74
2024/03/02 04:06:17;;;;;;;6.10;2.93;;;1.20;99.90;;;;;;2066910;28;20652;-74
2024/03/02 04:07:18;;;;;;;8.20;4.07;;;1.10;99.90;;;;;;2068248;28;20224;-74
2024/03/02 04:08:18;;;;;;;6.70;3.83;;;1.10;99.90;;;;;;2063189;28;20713;-74
2024/03/02 04:09:19;;;;;;;5.37;3.40;;;1.10;99.90;;;;;;2070736;28;20251;-74
2024/03/02 04:10:20;;;;;;;6.50;3.80;;;1.10;99.90;;;;;;2071693;28;20222;-74
2024/03/02 04:11:21;;;;;;;5.25;3.90;;;1.20;99.90;;;;;;2074627;28;20213;-75
2024/03/02 04:12:22;;;;;;;7.47;4.03;;;1.10;99.90;;;;;;2068661;28;20652;-75
2024/03/02 04:13:23;;;;;;;3.97;3.17;;;1.10;99.90;;;;;;2068945;28;20309;-74
2024/03/02 04:14:23;;;;;;;7.07;4.50;;;1.00;99.90;;;;;;2059297;28;20227;-75
2024/03/02 04:15:24;;;;;;;5.33;3.73;;;1.10;99.90;;;;;;2056923;28;20212;-74
2024/03/02 04:16:25;;;;;;;5.10;3.50;;;1.10;99.90;;;;;;2065587;28;20224;-74
2024/03/02 04:17:26;;;;;;;5.60;3.83;;;1.20;99.90;;;;;;2071263;28;20714;-76
2024/03/02 04:18:26;;;;;;;6.27;4.10;;;1.20;99.90;;;;;;2064044;28;20227;-74
2024/03/02 04:19:27;;;;;;;6.83;4.17;;;1.20;99.90;;;;;;2065061;28;20222;-74
2024/03/02 04:20:28;;;;;;;6.72;3.90;;;1.10;99.90;;;;;;2063441;28;20214;-75
2024/03/02 04:21:29;;;;;;;4.87;3.77;;;1.10;99.90;;;;;;2064707;28;20279;-74
2024/03/02 04:22:29;;;;;;;8.77;4.60;;;1.10;99.90;;;;;;2057798;28;20222;-75
2024/03/02 04:23:30;;;;;;;4.87;3.73;;;1.10;99.90;;;;;;2058437;28;20229;-74
2024/03/02 04:24:31;;;;;;;5.33;3.57;;;1.10;99.90;;;;;;2061522;28;20224;-74
2024/03/02 04:25:31;;;;;;;7.70;4.13;;;1.10;99.90;;;;;;2062388;28;20611;-74
2024/03/02 04:26:32;;;;;;;5.10;3.37;;;1.00;99.90;;;;;;2050220;28;20307;-75
2024/03/02 04:27:35;;;;;;;5.67;4.10;;;1.00;99.90;;;;;;2057051;28;20228;-74
2024/03/02 04:28:36;;;;;;;5.70;3.67;;;1.00;99.90;;;;;;2056416;28;20765;-75
2024/03/02 04:29:37;;;;;;;5.73;4.03;;;1.00;99.90;;;;;;2063950;28;20225;-75
2024/03/02 04:30:37;;;;;;;6.40;3.83;;;1.00;99.90;;;;;;2072372;28;20243;-75
2024/03/02 04:31:38;;;;;;;7.90;4.87;;;1.00;99.90;;;;;;2066089;28;20264;-74
2024/03/02 04:32:39;;;;;;;6.40;4.07;;;1.00;99.90;;;;;;2047590;28;20227;-74
2024/03/02 04:33:39;;;;;;;6.27;4.20;;;1.00;99.90;;;;;;2062924;28;20248;-75
2024/03/02 04:34:40;;;;;;;5.97;4.13;;;0.90;99.90;;;;;;2061775;28;20233;-74
2024/03/02 04:35:41;;;;;;;5.82;4.03;;;0.90;99.90;;;;;;2056714;28;20297;-75
2024/03/02 04:36:41;;;;;;;5.77;4.23;;;0.90;99.90;;;;;;2056626;28;20226;-75
2024/03/02 04:37:42;;;;;;;6.70;3.73;;;0.90;99.90;;;;;;2064752;28;20222;-74
2024/03/02 04:38:43;;;;;;;7.20;3.67;;;0.90;99.90;;;;;;2065106;28;20692;-75
2024/03/02 04:39:44;;;;;;;6.57;3.47;;;0.90;99.90;;;;;;2065169;28;20234;-75
2024/03/02 04:40:44;;;;;;;5.93;3.43;;;0.90;99.90;;;;;;2074132;28;20764;-74
2024/03/02 04:41:45;;;;;;;4.97;3.20;;;1.00;99.90;;;;;;2062440;28;20234;-75
2024/03/02 04:42:46;;;;;;;5.93;3.47;;;1.00;99.90;;;;;;2062313;28;20221;-74
2024/03/02 04:43:46;;;;;;;6.97;3.90;;;1.00;99.90;;;;;;2054955;28;20623;-74
2024/03/02 04:44:47;;;;;;;6.47;4.00;;;0.90;99.90;;;;;;2055637;28;20230;-74
2024/03/02 04:45:48;;;;;;;6.60;4.30;;;0.90;99.90;;;;;;2064392;28;20187;-74
2024/03/02 04:46:49;;;;;;;6.13;3.70;;;0.80;99.90;;;;;;2056496;28;20199;-74
2024/03/02 04:47:49;;;;;;;6.57;3.30;;;0.80;99.90;;;;;;2057456;28;20365;-74
2024/03/02 04:48:55;;;;;;;7.67;3.90;;;0.80;99.90;;;;;;2073502;28;20289;-76
2024/03/02 04:49:56;;;;;;;6.68;3.85;;;0.80;99.90;;;;;;2073743;28;20624;-74
2024/03/02 04:50:56;;;;;;;6.63;3.40;;;0.80;99.90;;;;;;2062990;28;20223;-74
2024/03/02 04:51:57;;;;;;;7.53;4.33;;;0.90;99.90;;;;;;2063410;28;20657;-74
2024/03/02 04:52:58;;;;;;;10.33;5.40;;;0.90;99.90;;;;;;2063424;28;20195;-74
2024/03/02 04:53:58;;;;;;;7.20;4.53;;;0.80;99.90;;;;;;2070459;28;20659;-74
2024/03/02 04:56:43;;;;;;;6.45;3.67;;;0.90;99.90;;;;;;2068798;28;20687;-75
2024/03/02 04:57:44;;;;;;;7.45;4.15;;;0.80;99.90;;;;;;2064014;28;20229;-74
2024/03/02 04:58:44;;;;;;;5.80;3.80;;;1.00;99.90;;;;;;2056741;28;20318;-74
2024/03/02 04:59:45;;;;;;;5.70;3.43;;;0.80;99.90;;;;;;2057791;28;20376;-75
2024/03/02 05:00:49;;;;;;;5.10;3.40;;;0.80;99.90;;;;;;2057697;28;20228;-75
2024/03/02 05:01:49;;;;;;;6.38;3.83;;;0.90;99.90;;;;;;2064724;28;20673;-75
2024/03/02 05:02:50;;;;;;;7.07;4.27;;;0.90;99.90;;;;;;2055906;28;20198;-74
2024/03/02 05:03:51;;;;;;;6.53;3.92;;;0.90;99.90;;;;;;2055982;28;20198;-76
2024/03/02 05:04:52;;;;;;;6.33;3.70;;;0.90;99.90;;;;;;2049028;28;20217;-75
2024/03/02 05:05:52;;;;;;;5.80;3.73;;;0.90;99.90;;;;;;2058198;28;20746;-74
2024/03/02 05:06:56;;;;;;;6.87;4.40;;;0.90;99.90;;;;;;2073454;28;20276;-75
2024/03/02 05:07:56;;;;;;;6.43;3.80;;;0.90;99.90;;;;;;2070702;28;20186;-75
2024/03/02 05:08:57;;;;;;;7.50;4.50;;;0.90;99.90;;;;;;2062371;28;20702;-75
2024/03/02 05:09:57;;;;;;;7.03;4.17;;;0.90;99.90;;;;;;2062943;28;20265;-74
2024/03/02 05:11:28;;;;;;;7.07;4.10;;;0.90;99.90;;;;;;2065529;28;20279;-75
2024/03/02 05:13:48;;;;;;;7.93;4.40;;;0.90;99.90;;;;;;2074908;28;20220;-75
2024/03/02 05:14:49;;;;;;;7.07;4.37;;;0.90;99.90;;;;;;2058956;28;20715;-74
2024/03/02 05:15:50;;;;;;;8.40;5.10;;;0.90;99.90;;;;;;2065166;28;20580;-75
2024/03/02 05:16:51;;;;;;;6.50;4.67;;;0.90;99.90;;;;;;2055336;28;20182;-74
2024/03/02 05:17:53;;;;;;;6.97;4.45;;;0.90;99.90;;;;;;2057044;28;20233;-76
2024/03/02 05:18:53;;;;;;;6.22;3.95;;;0.90;99.90;;;;;;2062436;28;20553;-74
2024/03/02 05:19:54;;;;;;;6.23;3.93;;;1.00;99.90;;;;;;2063473;28;20204;-73
2024/03/02 05:20:55;;;;;;;4.20;2.77;;;0.90;99.90;;;;;;2056878;28;20680;-74
2024/03/02 05:21:55;;;;;;;3.73;1.80;;;1.00;99.90;;;;;;2059778;28;20276;-74
2024/03/02 05:22:56;;;;;;;1.70;1.60;;;1.00;99.90;;;;;;2073861;28;20190;-74
2024/03/02 05:23:57;;;;;;;2.83;2.20;;;0.90;99.90;;;;;;2071245;28;20187;-74
2024/03/02 05:24:59;;;;;;;3.70;3.10;;;1.00;99.90;;;;;;2063592;28;20654;-74
2024/03/02 05:25:59;;;;;;;3.10;2.45;;;0.90;99.90;;;;;;2062712;28;20190;-74